createdAt,value
2017-11-10T00:00:04.540Z,98888.45
2017-11-10T00:02:32.030Z,98888.30
2017-11-10T00:04:59.538Z,98885.16
2017-11-10T00:07:27.065Z,98886.39
2017-11-10T00:09:54.805Z,98873.23
2017-11-10T00:12:22.332Z,98874.69
2017-11-10T00:14:52.138Z,98873.45
2017-11-10T00:17:24.233Z,98869.69
2017-11-10T00:19:51.728Z,98868.91
2017-11-10T00:22:19.246Z,98872.78
2017-11-10T00:24:46.849Z,98881.09
2017-11-10T00:27:14.355Z,98880.50
2017-11-10T00:29:41.863Z,98876.55
2017-11-10T00:32:09.418Z,98878.41
2017-11-10T00:34:36.924Z,98882.11
2017-11-10T00:37:04.445Z,98876.55
2017-11-10T00:39:31.955Z,98879.68
2017-11-10T00:41:59.479Z,98883.89
2017-11-10T00:44:26.982Z,98881.77
2017-11-10T00:46:54.484Z,98880.80
2017-11-10T00:49:21.993Z,98879.94
2017-11-10T00:51:49.509Z,98872.45
2017-11-10T00:54:17.048Z,98867.59
2017-11-10T00:56:44.542Z,98863.95
2017-11-10T00:59:12.047Z,98862.34
2017-11-10T01:01:40.471Z,98853.80
2017-11-10T01:04:07.998Z,98854.42
2017-11-10T01:06:35.490Z,98855.25
2017-11-10T01:09:03.003Z,98853.94
2017-11-10T01:11:30.495Z,98850.63
2017-11-10T01:13:57.994Z,98847.95
2017-11-10T01:16:25.513Z,98843.73
2017-11-10T01:18:53.008Z,98841.09
2017-11-10T01:21:20.540Z,98835.58
2017-11-10T01:23:48.055Z,98824.35
2017-11-10T01:26:15.547Z,98820.55
2017-11-10T01:28:43.042Z,98816.06
2017-11-10T01:31:10.546Z,98800.61
2017-11-10T01:33:38.038Z,98794.27
2017-11-10T01:36:05.526Z,98778.25
2017-11-10T01:38:33.025Z,98775.56
2017-11-10T01:41:00.540Z,98767.61
2017-11-10T01:43:28.043Z,98759.33
2017-11-10T01:45:55.540Z,98765.08
2017-11-10T01:48:23.052Z,98760.23
2017-11-10T01:50:50.552Z,98754.42
2017-11-10T01:53:18.062Z,98751.19
2017-11-10T01:55:45.584Z,98733.67
2017-11-10T01:58:13.384Z,98718.15
2017-11-10T02:00:40.890Z,98724.36
2017-11-10T02:03:08.416Z,98714.96
2017-11-10T02:05:35.945Z,98717.94
2017-11-10T02:08:03.449Z,98712.87
2017-11-10T02:10:30.972Z,98710.50
2017-11-10T02:12:58.470Z,98708.75
2017-11-10T02:15:26.005Z,98704.42
2017-11-10T02:17:53.498Z,98701.30
2017-11-10T02:20:21.027Z,98714.11
2017-11-10T02:22:48.523Z,98721.44
2017-11-10T02:25:16.037Z,98711.81
2017-11-10T02:27:43.596Z,98710.38
2017-11-10T02:30:11.110Z,98715.14
2017-11-10T02:32:38.659Z,98715.89
2017-11-10T02:35:06.203Z,98720.06
2017-11-10T02:37:33.720Z,98722.02
2017-11-10T02:40:01.262Z,98734.47
2017-11-10T02:42:28.786Z,98739.68
2017-11-10T02:44:56.286Z,98748.91
2017-11-10T02:47:23.790Z,98758.56
2017-11-10T02:49:51.297Z,98764.97
2017-11-10T02:52:18.801Z,98744.56
2017-11-10T02:54:46.324Z,98738.70
2017-11-10T02:57:13.862Z,98749.30
2017-11-10T02:59:41.366Z,98755.31
2017-11-10T03:02:08.899Z,98753.78
2017-11-10T03:04:36.399Z,98749.86
2017-11-10T03:07:03.920Z,98758.94
2017-11-10T03:09:31.433Z,98764.19
2017-11-10T03:11:58.943Z,98762.79
2017-11-10T03:14:26.441Z,98761.45
2017-11-10T03:16:54.020Z,98760.01
2017-11-10T03:19:21.536Z,98751.30
2017-11-10T03:21:49.051Z,98739.75
2017-11-10T03:24:16.579Z,98720.91
2017-11-10T03:26:44.542Z,98720.36
2017-11-10T03:29:12.044Z,98725.25
2017-11-10T03:31:39.545Z,98738.37
2017-11-10T03:34:07.081Z,98739.64
2017-11-10T03:36:34.588Z,98738.63
2017-11-10T03:39:02.088Z,98739.16
2017-11-10T03:41:29.593Z,98736.32
2017-11-10T03:43:57.117Z,98737.55
2017-11-10T03:46:24.627Z,98742.73
2017-11-10T03:48:52.140Z,98736.52
2017-11-10T03:51:19.639Z,98732.83
2017-11-10T03:53:47.135Z,98730.44
2017-11-10T03:56:14.652Z,98730.81
2017-11-10T03:58:42.155Z,98717.38
2017-11-10T04:01:09.671Z,98711.20
2017-11-10T04:03:37.191Z,98704.42
2017-11-10T04:06:04.720Z,98696.80
2017-11-10T04:08:32.251Z,98684.14
2017-11-10T04:10:59.754Z,98680.30
2017-11-10T04:13:27.260Z,98683.73
2017-11-10T04:15:54.760Z,98698.33
2017-11-10T04:18:22.270Z,98695.72
2017-11-10T04:20:49.802Z,98693.33
2017-11-10T04:23:17.312Z,98686.59
2017-11-10T04:25:44.812Z,98682.94
2017-11-10T04:28:12.323Z,98679.12
2017-11-10T04:30:39.831Z,98665.24
2017-11-10T04:33:07.350Z,98674.00
2017-11-10T04:35:34.864Z,98667.89
2017-11-10T04:38:02.384Z,98671.91
2017-11-10T04:40:29.891Z,98673.38
2017-11-10T04:42:57.408Z,98679.23
2017-11-10T04:45:24.918Z,98692.53
2017-11-10T04:47:52.426Z,98693.50
2017-11-10T04:50:19.928Z,98698.89
2017-11-10T04:52:47.436Z,98703.44
2017-11-10T04:55:14.951Z,98713.98
2017-11-10T04:57:42.483Z,98721.11
2017-11-10T05:00:09.993Z,98720.37
2017-11-10T05:02:37.507Z,98723.27
2017-11-10T05:05:05.008Z,98711.35
2017-11-10T05:07:32.508Z,98700.55
2017-11-10T05:10:00.045Z,98693.30
2017-11-10T05:12:27.610Z,98692.73
2017-11-10T05:14:55.094Z,98680.78
2017-11-10T05:17:22.598Z,98684.66
2017-11-10T05:19:50.101Z,98680.48
2017-11-10T05:22:17.609Z,98680.63
2017-11-10T05:24:45.139Z,98679.80
2017-11-10T05:27:12.667Z,98658.77
2017-11-10T05:29:40.166Z,98649.55
2017-11-10T05:32:07.670Z,98641.85
2017-11-10T05:34:35.169Z,98637.39
2017-11-10T05:37:02.680Z,98645.30
2017-11-10T05:39:30.184Z,98643.92
2017-11-10T05:41:57.707Z,98649.55
2017-11-10T05:44:25.226Z,98646.39
2017-11-10T05:46:52.745Z,98635.43
2017-11-10T05:49:20.251Z,98641.78
2017-11-10T05:51:47.752Z,98651.49
2017-11-10T05:54:15.268Z,98653.28
2017-11-10T05:56:42.799Z,98654.11
2017-11-10T05:59:10.327Z,98652.39
2017-11-10T06:01:37.976Z,98647.61
2017-11-10T06:04:05.498Z,98636.42
2017-11-10T06:06:33.024Z,98646.61
2017-11-10T06:09:00.549Z,98645.85
2017-11-10T06:11:28.081Z,98645.50
2017-11-10T06:13:55.595Z,98648.12
2017-11-10T06:16:23.131Z,98651.02
2017-11-10T06:18:50.651Z,98651.66
2017-11-10T06:21:18.161Z,98649.99
2017-11-10T06:23:45.667Z,98638.06
2017-11-10T06:26:13.179Z,98642.19
2017-11-10T06:28:40.677Z,98636.41
2017-11-10T06:31:08.194Z,98641.70
2017-11-10T06:33:35.723Z,98639.45
2017-11-10T06:36:03.225Z,98642.61
2017-11-10T06:38:30.727Z,98650.98
2017-11-10T06:40:58.255Z,98655.51
2017-11-10T06:43:25.758Z,98653.78
2017-11-10T06:45:53.275Z,98654.20
2017-11-10T06:48:20.781Z,98652.30
2017-11-10T06:50:48.305Z,98646.41
2017-11-10T06:53:15.811Z,98642.14
2017-11-10T06:55:43.337Z,98633.30
2017-11-10T06:58:10.855Z,98625.23
2017-11-10T07:00:38.359Z,98615.25
2017-11-10T07:03:05.862Z,98619.88
2017-11-10T07:05:33.359Z,98618.86
2017-11-10T07:08:00.873Z,98612.84
2017-11-10T07:10:28.392Z,98621.81
2017-11-10T07:12:55.915Z,98634.11
2017-11-10T07:15:23.408Z,98623.85
2017-11-10T07:17:50.931Z,98622.53
2017-11-10T07:20:18.438Z,98642.98
2017-11-10T07:22:46.065Z,98637.82
2017-11-10T07:25:13.564Z,98645.63
2017-11-10T07:27:41.080Z,98648.16
2017-11-10T07:30:08.782Z,98640.70
2017-11-10T07:32:36.287Z,98641.78
2017-11-10T07:35:03.805Z,98639.91
2017-11-10T07:37:31.344Z,98642.19
2017-11-10T07:39:59.188Z,98634.23
2017-11-10T07:42:26.814Z,98631.44
2017-11-10T07:44:54.324Z,98634.73
2017-11-10T07:47:21.826Z,98634.39
2017-11-10T07:49:49.323Z,98633.66
2017-11-10T07:52:16.824Z,98632.21
2017-11-10T07:54:44.344Z,98616.55
2017-11-10T07:57:11.849Z,98612.69
2017-11-10T07:59:39.357Z,98612.30
2017-11-10T08:02:06.867Z,98622.02
2017-11-10T08:04:34.371Z,98631.41
2017-11-10T08:07:01.882Z,98622.09
2017-11-10T08:09:29.434Z,98628.06
2017-11-10T08:11:56.955Z,98621.44
2017-11-10T08:14:24.446Z,98616.98
2017-11-10T08:16:51.964Z,98621.63
2017-11-10T08:19:19.486Z,98625.38
2017-11-10T08:21:47.021Z,98620.93
2017-11-10T08:24:14.538Z,98621.59
2017-11-10T08:26:42.052Z,98622.11
2017-11-10T08:29:09.564Z,98624.70
2017-11-10T08:31:37.080Z,98631.38
2017-11-10T08:34:04.608Z,98625.88
2017-11-10T08:36:32.103Z,98619.16
2017-11-10T08:38:59.613Z,98610.50
2017-11-10T08:41:27.117Z,98621.41
2017-11-10T08:43:54.633Z,98615.16
2017-11-10T08:46:22.167Z,98621.50
2017-11-10T08:48:49.745Z,98620.48
2017-11-10T08:51:17.235Z,98608.95
2017-11-10T08:53:44.767Z,98608.55
2017-11-10T08:56:12.262Z,98599.11
2017-11-10T08:58:39.779Z,98601.20
2017-11-10T09:01:07.271Z,98593.89
2017-11-10T09:03:34.789Z,98586.45
2017-11-10T09:06:02.307Z,98583.48
2017-11-10T09:08:29.876Z,98580.83
2017-11-10T09:10:57.395Z,98575.27
2017-11-10T09:13:24.895Z,98572.84
2017-11-10T09:15:52.389Z,98568.95
2017-11-10T09:18:19.910Z,98565.20
2017-11-10T09:20:47.424Z,98563.86
2017-11-10T09:23:14.916Z,98566.02
2017-11-10T09:25:42.414Z,98558.67
2017-11-10T09:28:10.338Z,98557.56
2017-11-10T09:30:43.370Z,98556.06
2017-11-10T09:33:18.434Z,98557.28
2017-11-10T09:35:52.373Z,98549.64
2017-11-10T09:38:24.446Z,98546.94
2017-11-10T09:40:51.954Z,98537.95
2017-11-10T09:43:20.954Z,98536.78
2017-11-10T09:46:03.333Z,98535.51
2017-11-10T09:48:36.585Z,98533.38
2017-11-10T09:51:09.633Z,98523.46
2017-11-10T09:53:42.708Z,98523.92
2017-11-10T09:56:15.786Z,98514.77
2017-11-10T10:02:06.464Z,98508.64
2017-11-10T10:04:48.813Z,98496.45
2017-11-10T10:10:29.134Z,98497.92
2017-11-10T10:13:12.334Z,98501.70
2017-11-10T10:15:49.418Z,98501.04
2017-11-10T10:18:22.611Z,98501.83
2017-11-10T10:21:10.854Z,98493.75
2017-11-10T10:23:38.357Z,98491.35
2017-11-10T10:26:05.862Z,98491.22
2017-11-10T10:28:33.391Z,98482.09
2017-11-10T10:31:00.884Z,98483.02
2017-11-10T10:33:28.400Z,98476.84
2017-11-10T10:35:55.938Z,98475.63
2017-11-10T10:38:23.456Z,98462.70
2017-11-10T10:40:50.999Z,98458.27
2017-11-10T10:43:18.519Z,98444.54
2017-11-10T10:45:46.019Z,98437.53
2017-11-10T10:48:13.503Z,98433.88
2017-11-10T10:50:40.993Z,98414.25
2017-11-10T10:53:08.586Z,98406.17
2017-11-10T10:55:36.187Z,98405.77
2017-11-10T10:58:03.670Z,98398.92
2017-11-10T11:00:31.173Z,98394.78
2017-11-10T11:02:58.670Z,98406.23
2017-11-10T11:05:26.163Z,98395.46
2017-11-10T11:07:53.663Z,98383.08
2017-11-10T11:10:21.187Z,98388.88
2017-11-10T11:12:48.697Z,98392.91
2017-11-10T11:15:16.216Z,98392.63
2017-11-10T11:17:43.728Z,98381.77
2017-11-10T11:20:11.259Z,98384.70
2017-11-10T11:22:38.758Z,98375.02
2017-11-10T11:25:06.250Z,98379.88
2017-11-10T11:27:33.764Z,98373.28
2017-11-10T11:30:01.350Z,98375.82
2017-11-10T11:32:28.899Z,98376.64
2017-11-10T11:34:56.433Z,98366.41
2017-11-10T11:37:23.940Z,98371.66
2017-11-10T11:39:51.468Z,98369.50
2017-11-10T11:42:18.989Z,98366.02
2017-11-10T11:44:46.492Z,98356.31
2017-11-10T11:47:14.006Z,98351.38
2017-11-10T11:49:41.518Z,98347.05
2017-11-10T11:52:09.020Z,98341.80
2017-11-10T11:54:36.564Z,98336.97
2017-11-10T11:57:04.068Z,98330.77
2017-11-10T11:59:31.563Z,98330.66
2017-11-10T12:01:59.106Z,98316.37
2017-11-10T12:04:26.599Z,98318.95
2017-11-10T12:06:54.095Z,98311.42
2017-11-10T12:09:21.596Z,98304.84
2017-11-10T12:11:49.092Z,98303.10
2017-11-10T12:14:16.598Z,98296.64
2017-11-10T12:16:44.095Z,98294.86
2017-11-10T12:19:11.582Z,98293.15
2017-11-10T12:21:39.168Z,98297.84
2017-11-10T12:24:06.678Z,98287.23
2017-11-10T12:26:34.193Z,98281.47
2017-11-10T12:29:01.716Z,98284.28
2017-11-10T12:31:29.297Z,98277.45
2017-11-10T12:33:56.819Z,98276.74
2017-11-10T12:36:24.339Z,98265.42
2017-11-10T12:38:52.818Z,98260.33
2017-11-10T12:41:20.334Z,98257.11
2017-11-10T12:43:47.833Z,98248.64
2017-11-10T12:46:15.363Z,98243.56
2017-11-10T12:48:42.908Z,98251.09
2017-11-10T12:51:11.281Z,98255.53
2017-11-10T12:53:38.813Z,98250.80
2017-11-10T12:56:06.314Z,98253.05
2017-11-10T12:58:33.825Z,98252.83
2017-11-10T13:01:01.333Z,98247.59
2017-11-10T13:03:28.838Z,98239.13
2017-11-10T13:05:56.370Z,98247.05
2017-11-10T13:08:23.891Z,98235.75
2017-11-10T13:10:51.399Z,98232.96
2017-11-10T13:13:18.908Z,98234.97
2017-11-10T13:15:46.435Z,98239.91
2017-11-10T13:18:13.961Z,98234.25
2017-11-10T13:20:41.480Z,98230.25
2017-11-10T13:23:08.993Z,98229.19
2017-11-10T13:25:36.497Z,98228.62
2017-11-10T13:28:04.018Z,98228.81
2017-11-10T13:30:31.547Z,98229.59
2017-11-10T13:32:59.052Z,98229.16
2017-11-10T13:35:26.559Z,98229.31
2017-11-10T13:37:54.079Z,98227.87
2017-11-10T13:40:21.610Z,98228.78
2017-11-10T13:42:49.136Z,98231.77
2017-11-10T13:45:16.650Z,98227.59
2017-11-10T13:47:44.223Z,98226.39
2017-11-10T13:50:11.719Z,98219.67
2017-11-10T13:52:39.540Z,98214.02
2017-11-10T13:55:07.053Z,98207.83
2017-11-10T13:57:35.740Z,98213.63
2017-11-10T14:00:03.262Z,98215.23
2017-11-10T14:02:30.778Z,98208.49
2017-11-10T14:04:58.294Z,98213.19
2017-11-10T14:07:25.795Z,98218.17
2017-11-10T14:09:53.315Z,98218.05
2017-11-10T14:12:20.844Z,98212.27
2017-11-10T14:14:48.349Z,98212.94
2017-11-10T14:17:15.910Z,98208.64
2017-11-10T14:19:43.442Z,98199.23
2017-11-10T14:22:10.939Z,98198.97
2017-11-10T14:24:38.461Z,98204.88
2017-11-10T14:27:05.990Z,98208.39
2017-11-10T14:29:33.529Z,98207.02
2017-11-10T14:32:01.039Z,98202.74
2017-11-10T14:34:28.545Z,98196.15
2017-11-10T14:36:56.084Z,98192.64
2017-11-10T14:39:23.607Z,98185.27
2017-11-10T14:41:51.118Z,98186.61
2017-11-10T14:44:18.675Z,98181.77
2017-11-10T14:46:46.200Z,98171.81
2017-11-10T14:49:13.715Z,98176.37
2017-11-10T14:51:41.220Z,98171.98
2017-11-10T14:54:08.736Z,98163.92
2017-11-10T14:56:36.255Z,98155.21
2017-11-10T14:59:03.759Z,98167.27
2017-11-10T15:01:31.271Z,98167.37
2017-11-10T15:03:58.763Z,98160.96
2017-11-10T15:06:26.276Z,98161.50
2017-11-10T15:08:54.161Z,98162.03
2017-11-10T15:11:21.791Z,98156.91
2017-11-10T15:13:49.301Z,98157.46
2017-11-10T15:16:16.828Z,98151.16
2017-11-10T15:18:44.366Z,98141.34
2017-11-10T15:21:11.858Z,98134.50
2017-11-10T15:23:39.419Z,98136.09
2017-11-10T15:26:06.938Z,98140.41
2017-11-10T15:28:34.443Z,98131.66
2017-11-10T15:31:01.956Z,98134.99
2017-11-10T15:33:29.491Z,98138.62
2017-11-10T15:35:56.992Z,98151.15
2017-11-10T15:38:24.530Z,98147.53
2017-11-10T15:40:52.027Z,98148.19
2017-11-10T15:43:19.601Z,98151.16
2017-11-10T15:45:47.164Z,98147.49
2017-11-10T15:48:14.662Z,98147.65
2017-11-10T15:50:42.159Z,98148.31
2017-11-10T15:53:09.654Z,98156.66
2017-11-10T15:55:37.138Z,98157.05
2017-11-10T15:58:04.639Z,98161.38
2017-11-10T16:00:32.160Z,98162.71
2017-11-10T16:02:59.668Z,98157.05
2017-11-10T16:05:27.205Z,98150.99
2017-11-10T16:07:54.707Z,98143.05
2017-11-10T16:10:22.235Z,98149.12
2017-11-10T16:12:49.752Z,98153.55
2017-11-10T16:15:17.243Z,98156.66
2017-11-10T16:17:44.779Z,98153.97
2017-11-10T16:20:12.274Z,98151.41
2017-11-10T16:22:39.796Z,98152.38
2017-11-10T16:25:07.296Z,98147.66
2017-11-10T16:27:34.818Z,98153.43
2017-11-10T16:30:02.323Z,98154.38
2017-11-10T16:32:29.817Z,98158.15
2017-11-10T16:34:57.322Z,98152.78
2017-11-10T16:37:24.816Z,98151.40
2017-11-10T16:39:52.319Z,98149.77
2017-11-10T16:42:19.835Z,98152.46
2017-11-10T16:44:47.340Z,98153.27
2017-11-10T16:47:14.863Z,98154.58
2017-11-10T16:49:42.367Z,98148.55
2017-11-10T16:52:09.863Z,98154.62
2017-11-10T16:54:37.397Z,98157.15
2017-11-10T16:57:04.891Z,98152.83
2017-11-10T16:59:32.382Z,98152.86
2017-11-10T17:01:59.886Z,98145.70
2017-11-10T17:04:27.398Z,98147.89
2017-11-10T17:06:54.896Z,98150.30
2017-11-10T17:09:22.407Z,98146.11
2017-11-10T17:11:49.937Z,98152.70
2017-11-10T17:14:17.454Z,98152.98
2017-11-10T17:16:44.970Z,98150.02
2017-11-10T17:19:12.501Z,98147.58
2017-11-10T17:21:40.019Z,98151.08
2017-11-10T17:24:07.509Z,98153.52
2017-11-10T17:26:35.127Z,98138.97
2017-11-10T17:29:02.661Z,98149.48
2017-11-10T17:31:30.166Z,98138.86
2017-11-10T17:33:57.658Z,98141.59
2017-11-10T17:36:25.162Z,98143.59
2017-11-10T17:38:52.712Z,98141.43
2017-11-10T17:41:20.207Z,98147.17
2017-11-10T17:43:47.731Z,98150.79
2017-11-10T17:46:15.250Z,98137.52
2017-11-10T17:48:42.755Z,98151.08
2017-11-10T17:51:10.285Z,98140.89
2017-11-10T17:53:37.774Z,98147.69
2017-11-10T17:56:05.267Z,98145.98
2017-11-10T17:58:32.799Z,98141.02
2017-11-10T18:01:00.418Z,98153.48
2017-11-10T18:03:27.949Z,98150.09
2017-11-10T18:05:55.552Z,98154.25
2017-11-10T18:08:23.038Z,98154.92
2017-11-10T18:10:50.536Z,98158.27
2017-11-10T18:13:18.073Z,98157.45
2017-11-10T18:15:45.570Z,98165.97
2017-11-10T18:18:13.064Z,98165.61
2017-11-10T18:20:40.576Z,98157.80
2017-11-10T18:23:08.278Z,98168.55
2017-11-10T18:25:35.815Z,98161.83
2017-11-10T18:28:03.294Z,98159.14
2017-11-10T18:30:30.794Z,98156.73
2017-11-10T18:32:58.315Z,98160.08
2017-11-10T18:35:25.813Z,98148.10
2017-11-10T18:37:53.328Z,98151.73
2017-11-10T18:40:20.938Z,98157.51
2017-11-10T18:42:48.484Z,98158.33
2017-11-10T18:45:16.027Z,98158.33
2017-11-10T18:47:43.534Z,98161.00
2017-11-10T18:50:11.064Z,98162.70
2017-11-10T18:52:38.566Z,98167.33
2017-11-10T18:55:06.088Z,98157.63
2017-11-10T18:57:36.987Z,98156.97
2017-11-10T19:00:04.574Z,98154.86
2017-11-10T19:02:32.146Z,98143.00
2017-11-10T19:04:59.649Z,98149.08
2017-11-10T19:07:27.193Z,98157.55
2017-11-10T19:09:54.681Z,98150.14
2017-11-10T19:12:22.191Z,98155.67
2017-11-10T19:14:49.815Z,98157.38
2017-11-10T19:17:17.327Z,98145.30
2017-11-10T19:19:44.843Z,98159.42
2017-11-10T19:22:12.373Z,98148.42
2017-11-10T19:24:39.863Z,98149.61
2017-11-10T19:27:07.446Z,98153.89
2017-11-10T19:29:35.011Z,98152.70
2017-11-10T19:32:02.548Z,98148.09
2017-11-10T19:34:30.132Z,98147.69
2017-11-10T19:36:57.655Z,98142.72
2017-11-10T19:39:25.153Z,98142.89
2017-11-10T19:41:52.676Z,98139.83
2017-11-10T19:44:20.204Z,98156.90
2017-11-10T19:46:47.718Z,98150.18
2017-11-10T19:49:15.318Z,98153.23
2017-11-10T19:51:42.834Z,98144.27
2017-11-10T19:54:10.345Z,98148.42
2017-11-10T19:56:37.874Z,98142.36
2017-11-10T19:59:05.414Z,98146.39
2017-11-10T20:01:32.935Z,98143.05
2017-11-10T20:04:00.470Z,98141.05
2017-11-10T20:06:27.980Z,98139.67
2017-11-10T20:08:55.511Z,98140.59
2017-11-10T20:11:23.034Z,98137.09
2017-11-10T20:13:50.544Z,98142.55
2017-11-10T20:16:18.077Z,98140.95
2017-11-10T20:18:45.616Z,98136.88
2017-11-10T20:21:13.127Z,98132.03
2017-11-10T20:23:40.655Z,98140.27
2017-11-10T20:26:08.208Z,98142.03
2017-11-10T20:28:35.712Z,98139.75
2017-11-10T20:31:03.228Z,98145.00
2017-11-10T20:33:30.799Z,98144.30
2017-11-10T20:35:58.458Z,98150.09
2017-11-10T20:38:25.983Z,98153.71
2017-11-10T20:40:53.608Z,98158.44
2017-11-10T20:43:21.154Z,98162.23
2017-11-10T20:45:48.672Z,98158.20
2017-11-10T20:48:16.177Z,98164.27
2017-11-10T20:50:43.846Z,98168.83
2017-11-10T20:53:11.368Z,98161.82
2017-11-10T20:55:38.889Z,98171.06
2017-11-10T20:58:06.524Z,98172.62
2017-11-10T21:00:34.052Z,98163.58
2017-11-10T21:03:01.584Z,98153.07
2017-11-10T21:05:29.114Z,98156.74
2017-11-10T21:07:56.615Z,98161.46
2017-11-10T21:10:24.156Z,98164.27
2017-11-10T21:12:51.677Z,98159.30
2017-11-10T21:15:19.240Z,98154.29
2017-11-10T21:17:46.761Z,98150.54
2017-11-10T21:20:14.283Z,98152.41
2017-11-10T21:22:41.825Z,98152.00
2017-11-10T21:25:09.377Z,98152.00
2017-11-10T21:27:36.887Z,98157.34
2017-11-10T21:30:04.533Z,98154.28
2017-11-10T21:32:32.057Z,98157.14
2017-11-10T21:34:59.550Z,98159.67
2017-11-10T21:37:27.090Z,98167.48
2017-11-10T21:39:54.606Z,98159.83
2017-11-10T21:42:22.121Z,98165.29
2017-11-10T21:44:49.653Z,98157.21
2017-11-10T21:47:17.197Z,98160.43
2017-11-10T21:49:44.707Z,98156.85
2017-11-10T21:52:12.251Z,98162.88
2017-11-10T21:54:39.769Z,98163.30
2017-11-10T21:57:07.812Z,98163.45
2017-11-10T21:59:35.324Z,98165.16
2017-11-10T22:02:02.871Z,98160.55
2017-11-10T22:04:30.383Z,98162.31
2017-11-10T22:06:57.911Z,98165.17
2017-11-10T22:09:25.463Z,98171.47
2017-11-10T22:11:52.995Z,98183.87
2017-11-10T22:14:20.480Z,98185.86
2017-11-10T22:16:48.005Z,98180.61
2017-11-10T22:19:15.501Z,98187.08
2017-11-10T22:21:43.076Z,98181.41
2017-11-10T22:24:10.586Z,98190.34
2017-11-10T22:26:38.095Z,98191.64
2017-11-10T22:29:05.631Z,98193.72
2017-11-10T22:31:33.177Z,98194.77
2017-11-10T22:34:00.671Z,98200.28
2017-11-10T22:36:28.265Z,98193.02
2017-11-10T22:38:55.913Z,98191.84
2017-11-10T22:41:23.409Z,98182.10
2017-11-10T22:43:50.927Z,98181.02
2017-11-10T22:46:18.450Z,98182.80
2017-11-10T22:48:45.954Z,98187.36
2017-11-10T22:51:13.475Z,98198.48
2017-11-10T22:53:40.985Z,98203.45
2017-11-10T22:56:08.490Z,98205.49
2017-11-10T22:58:36.002Z,98206.18
2017-11-10T23:01:03.511Z,98209.64
2017-11-10T23:03:31.048Z,98215.95
2017-11-10T23:05:58.535Z,98207.12
2017-11-10T23:08:26.065Z,98215.14
2017-11-10T23:10:53.677Z,98214.73
2017-11-10T23:13:25.024Z,98213.68
2017-11-10T23:15:54.955Z,98210.54
2017-11-10T23:18:22.485Z,98215.80
2017-11-10T23:20:49.987Z,98213.22
2017-11-10T23:23:17.584Z,98213.51
2017-11-10T23:25:45.236Z,98217.02
2017-11-10T23:28:12.725Z,98220.52
2017-11-10T23:30:40.246Z,98224.28
2017-11-10T23:33:07.773Z,98226.43
2017-11-10T23:35:35.259Z,98226.84
2017-11-10T23:38:02.786Z,98220.69
2017-11-10T23:40:30.311Z,98228.34
2017-11-10T23:42:57.807Z,98212.21
2017-11-10T23:45:25.362Z,98204.43
2017-11-10T23:47:52.874Z,98205.45
2017-11-10T23:50:20.382Z,98199.70
2017-11-10T23:52:48.005Z,98212.38
2017-11-10T23:55:15.499Z,98202.84
2017-11-10T23:57:43.027Z,98215.47
